sensor_id;sensor_type;location;lat;lon;timestamp;P1;durP1;ratioP1;P2;durP2;ratioP2
73474;SDS011;61711;52.266;10.542;2023-08-01T00:00:47;2.90;;;1.48;;
73474;SDS011;61711;52.266;10.542;2023-08-01T00:03:13;1.75;;;1.42;;
73474;SDS011;61711;52.266;10.542;2023-08-01T00:05:39;2.53;;;1.52;;
73474;SDS011;61711;52.266;10.542;2023-08-01T00:08:09;1.77;;;1.48;;
73474;SDS011;61711;52.266;10.542;2023-08-01T00:10:37;2.97;;;1.80;;
73474;SDS011;61711;52.266;10.542;2023-08-01T00:13:03;3.35;;;1.70;;
73474;SDS011;61711;52.266;10.542;2023-08-01T00:15:29;2.90;;;1.70;;
73474;SDS011;61711;52.266;10.542;2023-08-01T00:17:55;2.67;;;1.77;;
73474;SDS011;61711;52.266;10.542;2023-08-01T00:20:21;2.63;;;1.73;;
73474;SDS011;61711;52.266;10.542;2023-08-01T00:22:48;4.72;;;1.75;;
73474;SDS011;61711;52.266;10.542;2023-08-01T00:25:14;2.30;;;1.80;;
73474;SDS011;61711;52.266;10.542;2023-08-01T00:27:40;4.43;;;2.05;;
73474;SDS011;61711;52.266;10.542;2023-08-01T00:30:06;3.47;;;2.13;;
73474;SDS011;61711;52.266;10.542;2023-08-01T00:32:32;2.65;;;1.95;;
73474;SDS011;61711;52.266;10.542;2023-08-01T00:34:58;4.05;;;2.60;;
73474;SDS011;61711;52.266;10.542;2023-08-01T00:37:24;3.65;;;2.28;;
73474;SDS011;61711;52.266;10.542;2023-08-01T00:39:50;3.70;;;2.10;;
73474;SDS011;61711;52.266;10.542;2023-08-01T00:42:16;4.03;;;2.08;;
73474;SDS011;61711;52.266;10.542;2023-08-01T00:44:42;3.67;;;2.20;;
73474;SDS011;61711;52.266;10.542;2023-08-01T00:47:08;5.68;;;2.50;;
73474;SDS011;61711;52.266;10.542;2023-08-01T00:49:35;3.70;;;2.30;;
73474;SDS011;61711;52.266;10.542;2023-08-01T00:52:01;3.10;;;2.00;;
73474;SDS011;61711;52.266;10.542;2023-08-01T00:54:27;4.57;;;2.17;;
73474;SDS011;61711;52.266;10.542;2023-08-01T00:56:59;3.22;;;2.15;;
73474;SDS011;61711;52.266;10.542;2023-08-01T00:59:25;7.18;;;2.40;;
73474;SDS011;61711;52.266;10.542;2023-08-01T01:01:51;4.40;;;2.40;;
73474;SDS011;61711;52.266;10.542;2023-08-01T01:04:17;4.88;;;2.28;;
73474;SDS011;61711;52.266;10.542;2023-08-01T01:06:55;5.63;;;2.42;;
73474;SDS011;61711;52.266;10.542;2023-08-01T01:09:23;5.82;;;2.58;;
73474;SDS011;61711;52.266;10.542;2023-08-01T01:11:49;4.53;;;2.47;;
73474;SDS011;61711;52.266;10.542;2023-08-01T01:14:15;4.05;;;3.08;;
73474;SDS011;61711;52.266;10.542;2023-08-01T01:16:41;6.25;;;4.05;;
73474;SDS011;61711;52.266;10.542;2023-08-01T01:19:08;4.15;;;2.15;;
73474;SDS011;61711;52.266;10.542;2023-08-01T01:21:35;3.67;;;2.40;;
73474;SDS011;61711;52.266;10.542;2023-08-01T01:24:02;3.15;;;2.08;;
73474;SDS011;61711;52.266;10.542;2023-08-01T01:26:28;6.43;;;2.83;;
73474;SDS011;61711;52.266;10.542;2023-08-01T01:28:54;5.47;;;3.15;;
73474;SDS011;61711;52.266;10.542;2023-08-01T01:31:21;5.93;;;3.88;;
73474;SDS011;61711;52.266;10.542;2023-08-01T01:33:47;7.20;;;4.60;;
73474;SDS011;61711;52.266;10.542;2023-08-01T01:36:13;8.38;;;5.10;;
73474;SDS011;61711;52.266;10.542;2023-08-01T01:38:39;9.38;;;4.55;;
73474;SDS011;61711;52.266;10.542;2023-08-01T01:41:05;7.07;;;5.05;;
73474;SDS011;61711;52.266;10.542;2023-08-01T01:43:31;8.50;;;5.05;;
73474;SDS011;61711;52.266;10.542;2023-08-01T01:45:57;9.40;;;4.90;;
73474;SDS011;61711;52.266;10.542;2023-08-01T01:48:23;6.80;;;4.60;;
73474;SDS011;61711;52.266;10.542;2023-08-01T01:50:49;6.43;;;3.90;;
73474;SDS011;61711;52.266;10.542;2023-08-01T01:53:15;4.35;;;3.40;;
73474;SDS011;61711;52.266;10.542;2023-08-01T01:55:41;4.13;;;2.92;;
73474;SDS011;61711;52.266;10.542;2023-08-01T01:58:07;4.88;;;3.10;;
73474;SDS011;61711;52.266;10.542;2023-08-01T02:00:33;5.65;;;2.75;;
73474;SDS011;61711;52.266;10.542;2023-08-01T02:02:59;6.82;;;3.08;;
73474;SDS011;61711;52.266;10.542;2023-08-01T02:05:27;11.82;;;2.92;;
73474;SDS011;61711;52.266;10.542;2023-08-01T02:07:53;5.95;;;2.50;;
73474;SDS011;61711;52.266;10.542;2023-08-01T02:10:19;7.28;;;2.60;;
73474;SDS011;61711;52.266;10.542;2023-08-01T02:12:45;5.65;;;2.42;;
73474;SDS011;61711;52.266;10.542;2023-08-01T02:15:11;4.45;;;2.20;;
73474;SDS011;61711;52.266;10.542;2023-08-01T02:17:38;6.38;;;2.50;;
73474;SDS011;61711;52.266;10.542;2023-08-01T02:20:04;3.97;;;2.08;;
73474;SDS011;61711;52.266;10.542;2023-08-01T02:22:30;5.78;;;2.15;;
73474;SDS011;61711;52.266;10.542;2023-08-01T02:24:56;4.70;;;2.35;;
73474;SDS011;61711;52.266;10.542;2023-08-01T02:27:22;3.47;;;2.50;;
73474;SDS011;61711;52.266;10.542;2023-08-01T02:29:48;4.45;;;2.45;;
73474;SDS011;61711;52.266;10.542;2023-08-01T02:32:15;6.30;;;2.90;;
73474;SDS011;61711;52.266;10.542;2023-08-01T02:34:41;6.97;;;3.40;;
73474;SDS011;61711;52.266;10.542;2023-08-01T02:37:07;6.50;;;3.63;;
73474;SDS011;61711;52.266;10.542;2023-08-01T02:39:34;8.27;;;3.13;;
73474;SDS011;61711;52.266;10.542;2023-08-01T02:42:00;6.80;;;2.97;;
73474;SDS011;61711;52.266;10.542;2023-08-01T02:44:27;7.15;;;2.65;;
73474;SDS011;61711;52.266;10.542;2023-08-01T02:46:53;4.22;;;2.30;;
73474;SDS011;61711;52.266;10.542;2023-08-01T02:49:19;5.40;;;2.50;;
73474;SDS011;61711;52.266;10.542;2023-08-01T02:51:45;3.22;;;2.15;;
73474;SDS011;61711;52.266;10.542;2023-08-01T02:54:11;3.33;;;1.83;;
73474;SDS011;61711;52.266;10.542;2023-08-01T02:56:37;3.03;;;1.80;;
73474;SDS011;61711;52.266;10.542;2023-08-01T02:59:06;4.10;;;1.75;;
73474;SDS011;61711;52.266;10.542;2023-08-01T03:01:34;4.32;;;1.75;;
73474;SDS011;61711;52.266;10.542;2023-08-01T03:04:01;3.28;;;1.80;;
73474;SDS011;61711;52.266;10.542;2023-08-01T03:06:27;3.15;;;1.80;;
73474;SDS011;61711;52.266;10.542;2023-08-01T03:08:53;4.20;;;1.50;;
73474;SDS011;61711;52.266;10.542;2023-08-01T03:11:19;3.20;;;1.95;;
73474;SDS011;61711;52.266;10.542;2023-08-01T03:13:45;3.13;;;1.90;;
73474;SDS011;61711;52.266;10.542;2023-08-01T03:16:11;5.82;;;2.00;;
73474;SDS011;61711;52.266;10.542;2023-08-01T03:18:37;3.33;;;1.92;;
73474;SDS011;61711;52.266;10.542;2023-08-01T03:21:03;3.67;;;1.63;;
73474;SDS011;61711;52.266;10.542;2023-08-01T03:23:29;4.53;;;3.25;;
73474;SDS011;61711;52.266;10.542;2023-08-01T03:25:55;2.67;;;1.80;;
73474;SDS011;61711;52.266;10.542;2023-08-01T03:28:21;3.78;;;2.00;;
73474;SDS011;61711;52.266;10.542;2023-08-01T03:30:48;5.55;;;2.40;;
73474;SDS011;61711;52.266;10.542;2023-08-01T03:33:16;10.45;;;6.25;;
73474;SDS011;61711;52.266;10.542;2023-08-01T03:35:42;3.97;;;2.50;;
73474;SDS011;61711;52.266;10.542;2023-08-01T03:38:08;4.43;;;2.22;;
73474;SDS011;61711;52.266;10.542;2023-08-01T03:40:34;4.18;;;2.50;;
73474;SDS011;61711;52.266;10.542;2023-08-01T03:43:00;3.38;;;2.25;;
73474;SDS011;61711;52.266;10.542;2023-08-01T03:45:26;4.25;;;2.58;;
73474;SDS011;61711;52.266;10.542;2023-08-01T03:47:52;4.07;;;2.40;;
73474;SDS011;61711;52.266;10.542;2023-08-01T03:50:18;6.70;;;4.18;;
73474;SDS011;61711;52.266;10.542;2023-08-01T03:52:44;7.10;;;4.60;;
73474;SDS011;61711;52.266;10.542;2023-08-01T03:55:10;8.93;;;4.15;;
73474;SDS011;61711;52.266;10.542;2023-08-01T03:57:36;7.13;;;4.20;;
73474;SDS011;61711;52.266;10.542;2023-08-01T04:00:04;5.80;;;2.53;;
73474;SDS011;61711;52.266;10.542;2023-08-01T04:02:30;6.13;;;2.70;;
73474;SDS011;61711;52.266;10.542;2023-08-01T04:04:56;7.05;;;2.50;;
73474;SDS011;61711;52.266;10.542;2023-08-01T04:07:22;5.85;;;2.60;;
73474;SDS011;61711;52.266;10.542;2023-08-01T04:09:48;4.65;;;2.17;;
73474;SDS011;61711;52.266;10.542;2023-08-01T04:12:15;3.72;;;2.15;;
73474;SDS011;61711;52.266;10.542;2023-08-01T04:14:41;3.63;;;2.17;;
73474;SDS011;61711;52.266;10.542;2023-08-01T04:17:07;3.65;;;2.08;;
73474;SDS011;61711;52.266;10.542;2023-08-01T04:19:33;6.47;;;2.10;;
73474;SDS011;61711;52.266;10.542;2023-08-01T04:21:59;3.67;;;2.20;;
73474;SDS011;61711;52.266;10.542;2023-08-01T04:24:25;4.47;;;2.10;;
73474;SDS011;61711;52.266;10.542;2023-08-01T04:26:52;5.74;;;2.56;;
73474;SDS011;61711;52.266;10.542;2023-08-01T04:29:19;6.07;;;1.95;;
73474;SDS011;61711;52.266;10.542;2023-08-01T04:31:45;4.13;;;1.70;;
73474;SDS011;61711;52.266;10.542;2023-08-01T04:34:11;3.15;;;1.60;;
73474;SDS011;61711;52.266;10.542;2023-08-01T04:36:37;2.35;;;1.73;;
73474;SDS011;61711;52.266;10.542;2023-08-01T04:39:03;4.78;;;1.50;;
73474;SDS011;61711;52.266;10.542;2023-08-01T04:41:29;6.97;;;1.60;;
73474;SDS011;61711;52.266;10.542;2023-08-01T04:43:55;6.65;;;1.60;;
73474;SDS011;61711;52.266;10.542;2023-08-01T04:46:21;2.65;;;1.60;;
73474;SDS011;61711;52.266;10.542;2023-08-01T04:48:47;4.25;;;1.67;;
73474;SDS011;61711;52.266;10.542;2023-08-01T04:51:13;3.63;;;1.80;;
73474;SDS011;61711;52.266;10.542;2023-08-01T04:53:39;2.53;;;1.73;;
73474;SDS011;61711;52.266;10.542;2023-08-01T04:56:05;6.43;;;1.60;;
73474;SDS011;61711;52.266;10.542;2023-08-01T04:58:31;4.15;;;1.58;;
73474;SDS011;61711;52.266;10.542;2023-08-01T05:00:57;4.43;;;1.75;;
73474;SDS011;61711;52.266;10.542;2023-08-01T05:03:23;3.80;;;1.60;;
73474;SDS011;61711;52.266;10.542;2023-08-01T05:05:49;2.00;;;1.55;;
73474;SDS011;61711;52.266;10.542;2023-08-01T05:08:15;2.63;;;1.50;;
73474;SDS011;61711;52.266;10.542;2023-08-01T05:10:41;3.17;;;1.50;;
73474;SDS011;61711;52.266;10.542;2023-08-01T05:13:07;2.80;;;1.52;;
73474;SDS011;61711;52.266;10.542;2023-08-01T05:15:33;2.85;;;1.40;;
73474;SDS011;61711;52.266;10.542;2023-08-01T05:17:59;4.88;;;1.40;;
73474;SDS011;61711;52.266;10.542;2023-08-01T05:20:25;3.47;;;1.35;;
73474;SDS011;61711;52.266;10.542;2023-08-01T05:22:56;1.50;;;0.90;;
73474;SDS011;61711;52.266;10.542;2023-08-01T05:25:21;2.20;;;0.90;;
73474;SDS011;61711;52.266;10.542;2023-08-01T05:27:47;3.58;;;1.10;;
73474;SDS011;61711;52.266;10.542;2023-08-01T05:30:14;1.75;;;1.00;;
73474;SDS011;61711;52.266;10.542;2023-08-01T05:35:25;2.75;;;1.00;;
73474;SDS011;61711;52.266;10.542;2023-08-01T05:37:51;1.83;;;0.90;;
73474;SDS011;61711;52.266;10.542;2023-08-01T05:40:17;0.98;;;0.60;;
73474;SDS011;61711;52.266;10.542;2023-08-01T05:42:43;2.03;;;0.60;;
73474;SDS011;61711;52.266;10.542;2023-08-01T05:45:09;1.27;;;0.70;;
73474;SDS011;61711;52.266;10.542;2023-08-01T05:47:36;1.23;;;0.60;;
73474;SDS011;61711;52.266;10.542;2023-08-01T05:50:05;1.17;;;0.63;;
73474;SDS011;61711;52.266;10.542;2023-08-01T05:52:31;0.82;;;0.70;;
73474;SDS011;61711;52.266;10.542;2023-08-01T05:54:57;1.40;;;0.70;;
73474;SDS011;61711;52.266;10.542;2023-08-01T05:57:23;1.25;;;0.60;;
73474;SDS011;61711;52.266;10.542;2023-08-01T05:59:49;0.60;;;0.50;;
73474;SDS011;61711;52.266;10.542;2023-08-01T06:02:15;0.82;;;0.70;;
73474;SDS011;61711;52.266;10.542;2023-08-01T06:04:41;1.27;;;0.60;;
73474;SDS011;61711;52.266;10.542;2023-08-01T06:07:07;0.80;;;0.60;;
73474;SDS011;61711;52.266;10.542;2023-08-01T06:09:33;0.77;;;0.70;;
73474;SDS011;61711;52.266;10.542;2023-08-01T06:11:59;1.50;;;0.73;;
73474;SDS011;61711;52.266;10.542;2023-08-01T06:14:25;1.55;;;0.70;;
73474;SDS011;61711;52.266;10.542;2023-08-01T06:16:51;1.15;;;0.80;;
73474;SDS011;61711;52.266;10.542;2023-08-01T06:19:17;2.33;;;0.70;;
73474;SDS011;61711;52.266;10.542;2023-08-01T06:21:43;1.00;;;0.70;;
73474;SDS011;61711;52.266;10.542;2023-08-01T06:24:09;1.20;;;0.77;;
73474;SDS011;61711;52.266;10.542;2023-08-01T06:26:35;0.80;;;0.70;;
73474;SDS011;61711;52.266;10.542;2023-08-01T06:29:01;1.95;;;0.65;;
73474;SDS011;61711;52.266;10.542;2023-08-01T06:31:27;3.20;;;0.80;;
73474;SDS011;61711;52.266;10.542;2023-08-01T06:33:53;5.53;;;0.98;;
73474;SDS011;61711;52.266;10.542;2023-08-01T06:36:20;1.27;;;0.60;;
73474;SDS011;61711;52.266;10.542;2023-08-01T06:38:46;1.05;;;0.80;;
73474;SDS011;61711;52.266;10.542;2023-08-01T06:41:12;2.90;;;2.20;;
73474;SDS011;61711;52.266;10.542;2023-08-01T06:43:38;1.67;;;1.33;;
73474;SDS011;61711;52.266;10.542;2023-08-01T06:46:04;1.23;;;0.90;;
73474;SDS011;61711;52.266;10.542;2023-08-01T06:48:31;1.48;;;0.90;;
73474;SDS011;61711;52.266;10.542;2023-08-01T06:50:59;1.48;;;0.90;;
73474;SDS011;61711;52.266;10.542;2023-08-01T06:53:26;2.97;;;1.00;;
73474;SDS011;61711;52.266;10.542;2023-08-01T06:55:52;1.65;;;1.27;;
73474;SDS011;61711;52.266;10.542;2023-08-01T06:58:18;1.65;;;1.13;;
73474;SDS011;61711;52.266;10.542;2023-08-01T07:00:44;1.40;;;1.30;;
73474;SDS011;61711;52.266;10.542;2023-08-01T07:03:10;2.15;;;1.20;;
73474;SDS011;61711;52.266;10.542;2023-08-01T07:05:36;2.90;;;1.40;;
73474;SDS011;61711;52.266;10.542;2023-08-01T07:08:03;2.33;;;1.63;;
73474;SDS011;61711;52.266;10.542;2023-08-01T07:10:29;3.10;;;1.70;;
73474;SDS011;61711;52.266;10.542;2023-08-01T07:12:55;3.88;;;1.77;;
73474;SDS011;61711;52.266;10.542;2023-08-01T07:15:21;4.55;;;2.50;;
73474;SDS011;61711;52.266;10.542;2023-08-01T07:17:47;3.83;;;2.30;;
73474;SDS011;61711;52.266;10.542;2023-08-01T07:20:13;3.05;;;1.90;;
73474;SDS011;61711;52.266;10.542;2023-08-01T07:22:39;4.35;;;1.90;;
73474;SDS011;61711;52.266;10.542;2023-08-01T07:25:06;4.00;;;1.83;;
73474;SDS011;61711;52.266;10.542;2023-08-01T07:27:32;2.85;;;2.22;;
73474;SDS011;61711;52.266;10.542;2023-08-01T07:29:58;2.97;;;1.92;;
73474;SDS011;61711;52.266;10.542;2023-08-01T07:32:24;3.25;;;1.60;;
73474;SDS011;61711;52.266;10.542;2023-08-01T07:34:50;3.10;;;1.80;;
73474;SDS011;61711;52.266;10.542;2023-08-01T07:37:16;1.92;;;1.40;;
73474;SDS011;61711;52.266;10.542;2023-08-01T07:39:42;1.75;;;1.40;;
73474;SDS011;61711;52.266;10.542;2023-08-01T07:42:08;1.95;;;1.50;;
73474;SDS011;61711;52.266;10.542;2023-08-01T07:44:34;4.13;;;1.80;;
73474;SDS011;61711;52.266;10.542;2023-08-01T07:47:00;1.85;;;1.52;;
73474;SDS011;61711;52.266;10.542;2023-08-01T07:49:26;1.83;;;1.45;;
73474;SDS011;61711;52.266;10.542;2023-08-01T07:51:52;2.72;;;1.67;;
73474;SDS011;61711;52.266;10.542;2023-08-01T07:54:18;2.05;;;1.77;;
73474;SDS011;61711;52.266;10.542;2023-08-01T07:56:44;1.97;;;1.77;;
73474;SDS011;61711;52.266;10.542;2023-08-01T07:59:13;2.20;;;1.73;;
73474;SDS011;61711;52.266;10.542;2023-08-01T08:01:39;5.55;;;2.35;;
73474;SDS011;61711;52.266;10.542;2023-08-01T08:04:06;5.97;;;2.30;;
73474;SDS011;61711;52.266;10.542;2023-08-01T08:06:32;4.57;;;2.70;;
73474;SDS011;61711;52.266;10.542;2023-08-01T08:08:58;5.97;;;3.30;;
73474;SDS011;61711;52.266;10.542;2023-08-01T08:11:24;7.63;;;3.47;;
73474;SDS011;61711;52.266;10.542;2023-08-01T08:13:50;8.32;;;4.10;;
73474;SDS011;61711;52.266;10.542;2023-08-01T08:16:16;7.03;;;3.67;;
73474;SDS011;61711;52.266;10.542;2023-08-01T08:18:42;6.47;;;3.42;;
73474;SDS011;61711;52.266;10.542;2023-08-01T08:21:08;6.88;;;3.53;;
73474;SDS011;61711;52.266;10.542;2023-08-01T08:23:34;8.77;;;3.90;;
73474;SDS011;61711;52.266;10.542;2023-08-01T08:26:00;11.80;;;3.95;;
73474;SDS011;61711;52.266;10.542;2023-08-01T08:28:29;6.65;;;3.70;;
73474;SDS011;61711;52.266;10.542;2023-08-01T08:30:56;6.35;;;3.45;;
73474;SDS011;61711;52.266;10.542;2023-08-01T08:33:22;7.47;;;3.63;;
73474;SDS011;61711;52.266;10.542;2023-08-01T08:35:48;8.98;;;3.78;;
73474;SDS011;61711;52.266;10.542;2023-08-01T08:38:15;8.20;;;3.97;;
73474;SDS011;61711;52.266;10.542;2023-08-01T08:40:48;9.30;;;4.03;;
73474;SDS011;61711;52.266;10.542;2023-08-01T08:43:18;7.20;;;4.03;;
73474;SDS011;61711;52.266;10.542;2023-08-01T08:45:44;7.03;;;4.18;;
73474;SDS011;61711;52.266;10.542;2023-08-01T08:48:13;8.20;;;4.28;;
73474;SDS011;61711;52.266;10.542;2023-08-01T08:50:44;6.55;;;4.18;;
73474;SDS011;61711;52.266;10.542;2023-08-01T08:53:11;9.73;;;4.40;;
73474;SDS011;61711;52.266;10.542;2023-08-01T08:55:41;11.30;;;4.53;;
73474;SDS011;61711;52.266;10.542;2023-08-01T08:58:07;8.20;;;4.32;;
73474;SDS011;61711;52.266;10.542;2023-08-01T09:00:36;7.38;;;4.28;;
73474;SDS011;61711;52.266;10.542;2023-08-01T09:03:03;8.75;;;4.50;;
73474;SDS011;61711;52.266;10.542;2023-08-01T09:05:30;7.45;;;4.35;;
73474;SDS011;61711;52.266;10.542;2023-08-01T09:07:58;8.10;;;4.70;;
73474;SDS011;61711;52.266;10.542;2023-08-01T09:10:27;8.85;;;4.05;;
73474;SDS011;61711;52.266;10.542;2023-08-01T09:12:53;8.82;;;4.53;;
73474;SDS011;61711;52.266;10.542;2023-08-01T09:15:19;8.50;;;4.28;;
73474;SDS011;61711;52.266;10.542;2023-08-01T09:17:52;7.70;;;4.32;;
73474;SDS011;61711;52.266;10.542;2023-08-01T09:20:20;6.15;;;3.85;;
73474;SDS011;61711;52.266;10.542;2023-08-01T09:22:46;8.77;;;4.20;;
73474;SDS011;61711;52.266;10.542;2023-08-01T09:25:12;7.05;;;4.10;;
73474;SDS011;61711;52.266;10.542;2023-08-01T09:27:38;7.97;;;4.00;;
73474;SDS011;61711;52.266;10.542;2023-08-01T09:30:09;5.30;;;3.40;;
73474;SDS011;61711;52.266;10.542;2023-08-01T09:32:36;7.53;;;3.92;;
73474;SDS011;61711;52.266;10.542;2023-08-01T09:35:02;8.27;;;3.63;;
73474;SDS011;61711;52.266;10.542;2023-08-01T09:37:38;9.30;;;3.90;;
73474;SDS011;61711;52.266;10.542;2023-08-01T09:40:04;5.28;;;3.70;;
73474;SDS011;61711;52.266;10.542;2023-08-01T09:42:37;6.20;;;3.55;;
73474;SDS011;61711;52.266;10.542;2023-08-01T09:47:35;6.95;;;3.60;;
73474;SDS011;61711;52.266;10.542;2023-08-01T09:50:01;5.78;;;3.42;;
73474;SDS011;61711;52.266;10.542;2023-08-01T09:52:28;8.48;;;3.90;;
73474;SDS011;61711;52.266;10.542;2023-08-01T09:54:54;4.85;;;3.55;;
73474;SDS011;61711;52.266;10.542;2023-08-01T09:57:20;8.82;;;3.40;;
73474;SDS011;61711;52.266;10.542;2023-08-01T09:59:47;7.65;;;3.67;;
73474;SDS011;61711;52.266;10.542;2023-08-01T10:02:15;8.20;;;3.00;;
73474;SDS011;61711;52.266;10.542;2023-08-01T10:04:41;5.25;;;3.03;;
73474;SDS011;61711;52.266;10.542;2023-08-01T10:07:11;6.05;;;3.00;;
73474;SDS011;61711;52.266;10.542;2023-08-01T10:09:37;6.00;;;3.08;;
73474;SDS011;61711;52.266;10.542;2023-08-01T10:12:04;6.70;;;3.05;;
73474;SDS011;61711;52.266;10.542;2023-08-01T10:14:31;4.43;;;2.53;;
73474;SDS011;61711;52.266;10.542;2023-08-01T10:16:58;5.35;;;2.72;;
73474;SDS011;61711;52.266;10.542;2023-08-01T10:19:24;4.45;;;2.40;;
73474;SDS011;61711;52.266;10.542;2023-08-01T10:21:51;4.38;;;2.70;;
73474;SDS011;61711;52.266;10.542;2023-08-01T10:24:17;5.38;;;2.50;;
73474;SDS011;61711;52.266;10.542;2023-08-01T10:26:47;5.00;;;2.50;;
73474;SDS011;61711;52.266;10.542;2023-08-01T10:29:13;5.00;;;2.80;;
73474;SDS011;61711;52.266;10.542;2023-08-01T10:31:39;4.93;;;2.72;;
73474;SDS011;61711;52.266;10.542;2023-08-01T10:34:06;5.28;;;2.53;;
73474;SDS011;61711;52.266;10.542;2023-08-01T10:36:32;4.55;;;2.92;;
73474;SDS011;61711;52.266;10.542;2023-08-01T10:38:58;4.20;;;2.60;;
73474;SDS011;61711;52.266;10.542;2023-08-01T10:41:26;6.30;;;3.00;;
73474;SDS011;61711;52.266;10.542;2023-08-01T10:44:08;6.55;;;3.13;;
73474;SDS011;61711;52.266;10.542;2023-08-01T10:46:48;4.47;;;2.80;;
73474;SDS011;61711;52.266;10.542;2023-08-01T10:49:14;5.22;;;2.90;;
73474;SDS011;61711;52.266;10.542;2023-08-01T10:51:41;6.78;;;2.95;;
73474;SDS011;61711;52.266;10.542;2023-08-01T10:54:17;6.28;;;3.00;;
73474;SDS011;61711;52.266;10.542;2023-08-01T10:56:47;4.60;;;2.83;;
73474;SDS011;61711;52.266;10.542;2023-08-01T10:59:14;5.25;;;2.90;;
73474;SDS011;61711;52.266;10.542;2023-08-01T11:01:44;4.65;;;2.78;;
73474;SDS011;61711;52.266;10.542;2023-08-01T11:04:14;6.13;;;2.80;;
73474;SDS011;61711;52.266;10.542;2023-08-01T11:06:44;5.22;;;2.95;;
73474;SDS011;61711;52.266;10.542;2023-08-01T11:11:42;3.10;;;1.98;;
73474;SDS011;61711;52.266;10.542;2023-08-01T11:14:08;3.60;;;2.05;;
73474;SDS011;61711;52.266;10.542;2023-08-01T11:16:36;4.22;;;2.30;;
73474;SDS011;61711;52.266;10.542;2023-08-01T11:19:02;5.35;;;2.17;;
73474;SDS011;61711;52.266;10.542;2023-08-01T11:21:28;4.60;;;3.10;;
73474;SDS011;61711;52.266;10.542;2023-08-01T11:23:54;5.80;;;2.97;;
73474;SDS011;61711;52.266;10.542;2023-08-01T11:26:22;6.05;;;4.97;;
73474;SDS011;61711;52.266;10.542;2023-08-01T11:28:48;4.57;;;2.38;;
73474;SDS011;61711;52.266;10.542;2023-08-01T11:31:14;4.22;;;1.98;;
73474;SDS011;61711;52.266;10.542;2023-08-01T11:33:40;3.75;;;2.40;;
73474;SDS011;61711;52.266;10.542;2023-08-01T11:36:06;4.22;;;2.28;;
73474;SDS011;61711;52.266;10.542;2023-08-01T11:38:33;7.97;;;2.42;;
73474;SDS011;61711;52.266;10.542;2023-08-01T11:41:01;5.82;;;2.15;;
73474;SDS011;61711;52.266;10.542;2023-08-01T11:43:37;6.05;;;2.30;;
73474;SDS011;61711;52.266;10.542;2023-08-01T11:46:04;3.30;;;1.80;;
73474;SDS011;61711;52.266;10.542;2023-08-01T11:48:30;4.20;;;2.10;;
73474;SDS011;61711;52.266;10.542;2023-08-01T11:50:56;2.45;;;1.92;;
73474;SDS011;61711;52.266;10.542;2023-08-01T11:53:23;2.97;;;1.98;;
73474;SDS011;61711;52.266;10.542;2023-08-01T11:55:49;2.83;;;1.90;;
73474;SDS011;61711;52.266;10.542;2023-08-01T11:58:27;2.45;;;1.77;;
73474;SDS011;61711;52.266;10.542;2023-08-01T12:01:01;2.72;;;2.05;;
73474;SDS011;61711;52.266;10.542;2023-08-01T12:03:28;3.78;;;2.20;;
73474;SDS011;61711;52.266;10.542;2023-08-01T12:06:04;4.75;;;2.17;;
73474;SDS011;61711;52.266;10.542;2023-08-01T12:08:32;2.72;;;2.25;;
73474;SDS011;61711;52.266;10.542;2023-08-01T12:10:58;3.70;;;2.08;;
73474;SDS011;61711;52.266;10.542;2023-08-01T12:13:25;2.80;;;2.08;;
73474;SDS011;61711;52.266;10.542;2023-08-01T12:15:52;2.80;;;1.80;;
73474;SDS011;61711;52.266;10.542;2023-08-01T12:18:21;3.15;;;1.85;;
73474;SDS011;61711;52.266;10.542;2023-08-01T12:20:47;4.05;;;2.10;;
73474;SDS011;61711;52.266;10.542;2023-08-01T12:23:13;3.10;;;2.20;;
73474;SDS011;61711;52.266;10.542;2023-08-01T12:25:39;4.00;;;2.25;;
73474;SDS011;61711;52.266;10.542;2023-08-01T12:28:05;2.88;;;2.47;;
73474;SDS011;61711;52.266;10.542;2023-08-01T12:30:31;4.53;;;2.70;;
73474;SDS011;61711;52.266;10.542;2023-08-01T12:32:57;3.67;;;2.17;;
73474;SDS011;61711;52.266;10.542;2023-08-01T12:35:24;3.17;;;2.03;;
73474;SDS011;61711;52.266;10.542;2023-08-01T12:37:51;3.92;;;2.08;;
73474;SDS011;61711;52.266;10.542;2023-08-01T12:40:17;4.75;;;2.20;;
73474;SDS011;61711;52.266;10.542;2023-08-01T12:42:43;3.60;;;2.00;;
73474;SDS011;61711;52.266;10.542;2023-08-01T12:45:09;4.28;;;2.47;;
73474;SDS011;61711;52.266;10.542;2023-08-01T12:47:35;4.60;;;2.28;;
73474;SDS011;61711;52.266;10.542;2023-08-01T12:50:02;3.70;;;2.50;;
73474;SDS011;61711;52.266;10.542;2023-08-01T12:52:28;2.50;;;2.30;;
73474;SDS011;61711;52.266;10.542;2023-08-01T12:54:54;4.28;;;2.33;;
73474;SDS011;61711;52.266;10.542;2023-08-01T12:57:20;8.85;;;6.93;;
73474;SDS011;61711;52.266;10.542;2023-08-01T12:59:46;4.35;;;2.70;;
73474;SDS011;61711;52.266;10.542;2023-08-01T13:02:13;3.95;;;2.25;;
73474;SDS011;61711;52.266;10.542;2023-08-01T13:04:39;4.15;;;2.38;;
73474;SDS011;61711;52.266;10.542;2023-08-01T13:07:05;3.67;;;2.70;;
73474;SDS011;61711;52.266;10.542;2023-08-01T13:09:31;6.00;;;2.60;;
73474;SDS011;61711;52.266;10.542;2023-08-01T13:11:57;3.08;;;2.28;;
73474;SDS011;61711;52.266;10.542;2023-08-01T13:14:25;3.28;;;2.50;;
73474;SDS011;61711;52.266;10.542;2023-08-01T13:16:51;3.55;;;2.60;;
73474;SDS011;61711;52.266;10.542;2023-08-01T13:19:17;6.85;;;3.08;;
73474;SDS011;61711;52.266;10.542;2023-08-01T13:21:43;4.75;;;3.20;;
73474;SDS011;61711;52.266;10.542;2023-08-01T13:24:09;4.32;;;2.50;;
73474;SDS011;61711;52.266;10.542;2023-08-01T13:26:36;5.28;;;2.90;;
73474;SDS011;61711;52.266;10.542;2023-08-01T13:29:02;4.40;;;2.83;;
73474;SDS011;61711;52.266;10.542;2023-08-01T13:31:28;5.07;;;3.35;;
73474;SDS011;61711;52.266;10.542;2023-08-01T13:33:57;5.00;;;3.28;;
73474;SDS011;61711;52.266;10.542;2023-08-01T13:36:23;6.35;;;3.20;;
73474;SDS011;61711;52.266;10.542;2023-08-01T13:38:49;4.28;;;2.60;;
73474;SDS011;61711;52.266;10.542;2023-08-01T13:41:15;4.30;;;2.92;;
73474;SDS011;61711;52.266;10.542;2023-08-01T13:43:41;3.53;;;2.30;;
73474;SDS011;61711;52.266;10.542;2023-08-01T13:46:11;2.95;;;2.40;;
73474;SDS011;61711;52.266;10.542;2023-08-01T13:48:38;5.93;;;3.40;;
73474;SDS011;61711;52.266;10.542;2023-08-01T13:51:04;5.32;;;3.28;;
73474;SDS011;61711;52.266;10.542;2023-08-01T13:53:30;8.52;;;5.75;;
73474;SDS011;61711;52.266;10.542;2023-08-01T13:55:56;5.35;;;2.15;;
73474;SDS011;61711;52.266;10.542;2023-08-01T13:58:22;2.80;;;2.35;;
73474;SDS011;61711;52.266;10.542;2023-08-01T14:00:48;3.00;;;2.50;;
73474;SDS011;61711;52.266;10.542;2023-08-01T14:03:14;5.03;;;2.90;;
73474;SDS011;61711;52.266;10.542;2023-08-01T14:05:40;5.00;;;3.05;;
73474;SDS011;61711;52.266;10.542;2023-08-01T14:08:06;3.22;;;2.50;;
73474;SDS011;61711;52.266;10.542;2023-08-01T14:10:32;4.57;;;2.25;;
73474;SDS011;61711;52.266;10.542;2023-08-01T14:12:58;4.00;;;2.00;;
73474;SDS011;61711;52.266;10.542;2023-08-01T14:15:24;2.95;;;1.95;;
73474;SDS011;61711;52.266;10.542;2023-08-01T14:17:50;2.33;;;1.65;;
73474;SDS011;61711;52.266;10.542;2023-08-01T14:20:17;3.65;;;2.20;;
73474;SDS011;61711;52.266;10.542;2023-08-01T14:22:44;2.92;;;2.00;;
73474;SDS011;61711;52.266;10.542;2023-08-01T14:25:11;2.63;;;2.03;;
73474;SDS011;61711;52.266;10.542;2023-08-01T14:27:37;4.38;;;2.40;;
73474;SDS011;61711;52.266;10.542;2023-08-01T14:30:03;3.70;;;2.40;;
73474;SDS011;61711;52.266;10.542;2023-08-01T14:32:31;2.80;;;2.22;;
73474;SDS011;61711;52.266;10.542;2023-08-01T14:34:57;8.25;;;3.25;;
73474;SDS011;61711;52.266;10.542;2023-08-01T14:37:23;7.10;;;5.68;;